MMCP/CPE METAR and TAF weather

Enter ICAO airport designator
Station Type Date Time Source
MMCP METAR 2022/01/29 00:40 UTC NOAA

MMCP 290040Z 01009KT 7SM BKN140 25/22 A3005 RMK 8/020 HZY


Station Type Date Time Source
MMCP Decoded METAR 2022/01/29 00:40 UTC NOAA

Campeche, Camp., Mexico (MMCP) 19-51N 090-33W
Jan 28, 2022 - 07:40 PM EST / 2022.01.29 0040 UTC
Wind: from the N (010 degrees) at 10 MPH (9 KT):0
Visibility: 7 mile(s):0
Sky conditions: mostly cloudy
Temperature: 77 F (25 C)
Dew Point: 71 F (22 C)
Relative Humidity: 83%
Pressure (altimeter): 30.05 in. Hg (1017 hPa)
ob: MMCP 290040Z 01009KT 7SM BKN140 25/22 A3005 RMK 8/020 HZY
cycle: 0

Station Type Date Time Source
MMCP TAF 2022/01/29 06:09 UTC NOAA

TAF MMCP 290506Z 2906/3006 02010KT P6SM SCT020 BKN100
TEMPO 2910/2914 BKN010
FM291500 36015KT P6SM SCT030 BKN080
FM292200 36015KT P6SM BKN020
FM300200 03008KT P6SM SCT020 BKN080

Example: see airport list